sensor_id;sensor_type;location;lat;lon;timestamp;pressure;altitude;pressure_sealevel;temperature;humidity
54666;BME280;40566;50.006;36.180;2022-12-07T00:04:26;100886.19;;;-7.19;54.76
54666;BME280;40566;50.006;36.180;2022-12-07T00:09:26;100881.75;;;-7.23;54.59
54666;BME280;40566;50.006;36.180;2022-12-07T00:14:27;100892.50;;;-7.26;54.84
54666;BME280;40566;50.006;36.180;2022-12-07T00:19:27;100884.97;;;-7.26;54.76
54666;BME280;40566;50.006;36.180;2022-12-07T00:24:28;100878.19;;;-7.27;54.85
54666;BME280;40566;50.006;36.180;2022-12-07T00:29:28;100882.06;;;-7.32;54.98
54666;BME280;40566;50.006;36.180;2022-12-07T00:34:29;100877.72;;;-7.34;54.78
54666;BME280;40566;50.006;36.180;2022-12-07T00:39:30;100881.28;;;-7.31;54.88
54666;BME280;40566;50.006;36.180;2022-12-07T00:44:30;100865.66;;;-7.40;55.16
54666;BME280;40566;50.006;36.180;2022-12-07T00:49:31;100872.41;;;-7.39;55.21
54666;BME280;40566;50.006;36.180;2022-12-07T00:54:31;100868.22;;;-7.39;54.88
54666;BME280;40566;50.006;36.180;2022-12-07T00:59:32;100847.28;;;-7.39;54.99
54666;BME280;40566;50.006;36.180;2022-12-07T01:04:34;100848.72;;;-7.43;55.33
54666;BME280;40566;50.006;36.180;2022-12-07T01:09:34;100836.66;;;-7.48;55.09
54666;BME280;40566;50.006;36.180;2022-12-07T01:14:35;100837.22;;;-7.52;55.32
54666;BME280;40566;50.006;36.180;2022-12-07T01:19:35;100836.09;;;-7.58;55.26
54666;BME280;40566;50.006;36.180;2022-12-07T01:24:36;100838.41;;;-7.61;55.49
54666;BME280;40566;50.006;36.180;2022-12-07T01:29:36;100827.28;;;-7.64;55.56
54666;BME280;40566;50.006;36.180;2022-12-07T01:34:37;100815.25;;;-7.70;55.82
54666;BME280;40566;50.006;36.180;2022-12-07T01:39:38;100822.34;;;-7.63;55.66
54666;BME280;40566;50.006;36.180;2022-12-07T01:50:17;100796.09;;;-7.81;55.94
54666;BME280;40566;50.006;36.180;2022-12-07T01:55:17;100798.63;;;-7.81;55.84
54666;BME280;40566;50.006;36.180;2022-12-07T02:00:19;100803.84;;;-7.91;55.89
54666;BME280;40566;50.006;36.180;2022-12-07T02:05:20;100797.94;;;-7.92;56.39
54666;BME280;40566;50.006;36.180;2022-12-07T02:10:25;100793.78;;;-7.91;56.16
54666;BME280;40566;50.006;36.180;2022-12-07T02:15:54;100794.88;;;-7.88;56.04
54666;BME280;40566;50.006;36.180;2022-12-07T02:26:19;100793.88;;;-7.90;56.05
54666;BME280;40566;50.006;36.180;2022-12-07T02:31:26;100785.97;;;-7.96;56.34
54666;BME280;40566;50.006;36.180;2022-12-07T02:36:33;100790.31;;;-7.93;55.99
54666;BME280;40566;50.006;36.180;2022-12-07T02:41:44;100780.88;;;-7.98;56.02
54666;BME280;40566;50.006;36.180;2022-12-07T02:46:53;100796.69;;;-7.99;56.49
54666;BME280;40566;50.006;36.180;2022-12-07T02:51:55;100787.31;;;-8.01;56.65
54666;BME280;40566;50.006;36.180;2022-12-07T03:02:50;100789.94;;;-8.00;56.38
54666;BME280;40566;50.006;36.180;2022-12-07T03:13:49;100779.69;;;-8.16;56.83
54666;BME280;40566;50.006;36.180;2022-12-07T03:19:04;100785.09;;;-8.10;56.45
54666;BME280;40566;50.006;36.180;2022-12-07T03:24:11;100781.13;;;-8.20;56.80
54666;BME280;40566;50.006;36.180;2022-12-07T03:29:27;100768.97;;;-8.27;56.73
54666;BME280;40566;50.006;36.180;2022-12-07T03:39:45;100754.50;;;-8.31;56.92
54666;BME280;40566;50.006;36.180;2022-12-07T03:44:50;100744.34;;;-8.32;56.87
54666;BME280;40566;50.006;36.180;2022-12-07T03:49:55;100740.78;;;-8.36;57.05
54666;BME280;40566;50.006;36.180;2022-12-07T03:55:05;100745.78;;;-8.36;57.00
54666;BME280;40566;50.006;36.180;2022-12-07T04:00:08;100744.81;;;-8.38;56.94
54666;BME280;40566;50.006;36.180;2022-12-07T04:05:10;100742.22;;;-8.40;57.23
54666;BME280;40566;50.006;36.180;2022-12-07T04:10:11;100747.44;;;-8.37;56.94
54666;BME280;40566;50.006;36.180;2022-12-07T04:15:11;100747.44;;;-8.37;57.07
54666;BME280;40566;50.006;36.180;2022-12-07T04:20:12;100742.31;;;-8.38;57.06
54666;BME280;40566;50.006;36.180;2022-12-07T04:25:13;100748.00;;;-8.41;57.35
54666;BME280;40566;50.006;36.180;2022-12-07T04:30:14;100746.28;;;-8.42;57.35
54666;BME280;40566;50.006;36.180;2022-12-07T04:35:14;100752.25;;;-8.40;57.44
54666;BME280;40566;50.006;36.180;2022-12-07T04:40:15;100749.19;;;-8.49;57.53
54666;BME280;40566;50.006;36.180;2022-12-07T04:45:16;100743.41;;;-8.48;57.55
54666;BME280;40566;50.006;36.180;2022-12-07T04:50:16;100739.25;;;-8.47;57.47
54666;BME280;40566;50.006;36.180;2022-12-07T04:55:17;100737.22;;;-8.53;57.57
54666;BME280;40566;50.006;36.180;2022-12-07T05:00:18;100744.94;;;-8.50;57.27
54666;BME280;40566;50.006;36.180;2022-12-07T05:05:18;100750.63;;;-8.52;57.72
54666;BME280;40566;50.006;36.180;2022-12-07T05:10:19;100735.25;;;-8.57;57.89
54666;BME280;40566;50.006;36.180;2022-12-07T05:15:20;100758.25;;;-8.51;57.88
54666;BME280;40566;50.006;36.180;2022-12-07T05:20:20;100749.78;;;-8.53;57.71
54666;BME280;40566;50.006;36.180;2022-12-07T05:25:21;100743.22;;;-8.51;57.81
54666;BME280;40566;50.006;36.180;2022-12-07T05:30:23;100761.63;;;-8.50;57.84
54666;BME280;40566;50.006;36.180;2022-12-07T05:35:24;100751.50;;;-8.52;57.56
54666;BME280;40566;50.006;36.180;2022-12-07T05:40:25;100755.06;;;-8.48;57.86
54666;BME280;40566;50.006;36.180;2022-12-07T05:45:25;100762.66;;;-8.33;57.72
54666;BME280;40566;50.006;36.180;2022-12-07T05:50:26;100766.13;;;-8.31;57.43
54666;BME280;40566;50.006;36.180;2022-12-07T05:55:28;100760.75;;;-8.24;57.68
54666;BME280;40566;50.006;36.180;2022-12-07T06:00:29;100754.03;;;-8.25;57.44
54666;BME280;40566;50.006;36.180;2022-12-07T06:05:30;100757.19;;;-8.14;57.74
54666;BME280;40566;50.006;36.180;2022-12-07T06:10:30;100756.13;;;-8.05;57.32
54666;BME280;40566;50.006;36.180;2022-12-07T06:15:31;100760.56;;;-8.01;57.65
54666;BME280;40566;50.006;36.180;2022-12-07T06:20:32;100754.97;;;-7.97;57.66
54666;BME280;40566;50.006;36.180;2022-12-07T06:25:32;100752.75;;;-7.92;57.78
54666;BME280;40566;50.006;36.180;2022-12-07T06:30:33;100751.78;;;-7.94;58.04
54666;BME280;40566;50.006;36.180;2022-12-07T06:35:33;100743.38;;;-7.94;58.10
54666;BME280;40566;50.006;36.180;2022-12-07T06:40:34;100746.47;;;-7.72;57.82
54666;BME280;40566;50.006;36.180;2022-12-07T06:45:35;100735.03;;;-7.67;57.72
54666;BME280;40566;50.006;36.180;2022-12-07T06:50:35;100713.97;;;-7.55;57.28
54666;BME280;40566;50.006;36.180;2022-12-07T06:55:36;100716.88;;;-7.63;57.73
54666;BME280;40566;50.006;36.180;2022-12-07T07:00:36;100719.84;;;-7.55;57.72
54666;BME280;40566;50.006;36.180;2022-12-07T07:05:37;100710.34;;;-7.46;57.84
54666;BME280;40566;50.006;36.180;2022-12-07T07:10:38;100706.75;;;-7.36;57.61
54666;BME280;40566;50.006;36.180;2022-12-07T07:15:38;100696.22;;;-7.15;57.18
54666;BME280;40566;50.006;36.180;2022-12-07T07:20:39;100684.63;;;-6.99;56.97
54666;BME280;40566;50.006;36.180;2022-12-07T07:25:40;100694.84;;;-6.95;56.94
54666;BME280;40566;50.006;36.180;2022-12-07T07:30:40;100699.31;;;-6.76;56.88
54666;BME280;40566;50.006;36.180;2022-12-07T07:35:41;100697.13;;;-6.70;56.89
54666;BME280;40566;50.006;36.180;2022-12-07T07:40:42;100687.28;;;-6.36;56.17
54666;BME280;40566;50.006;36.180;2022-12-07T07:45:44;100680.78;;;-6.32;56.70
54666;BME280;40566;50.006;36.180;2022-12-07T07:50:44;100679.19;;;-6.15;56.63
54666;BME280;40566;50.006;36.180;2022-12-07T07:55:54;100686.78;;;-5.99;56.47
54666;BME280;40566;50.006;36.180;2022-12-07T08:00:55;100679.78;;;-5.88;56.53
54666;BME280;40566;50.006;36.180;2022-12-07T08:05:55;100672.38;;;-5.69;56.46
54666;BME280;40566;50.006;36.180;2022-12-07T08:10:56;100668.28;;;-5.67;56.38
54666;BME280;40566;50.006;36.180;2022-12-07T08:16:08;100662.97;;;-5.56;56.54
54666;BME280;40566;50.006;36.180;2022-12-07T08:21:13;100661.72;;;-5.48;56.34
54666;BME280;40566;50.006;36.180;2022-12-07T08:26:16;100645.16;;;-5.27;56.27
54666;BME280;40566;50.006;36.180;2022-12-07T08:31:17;100639.94;;;-5.30;56.33
54666;BME280;40566;50.006;36.180;2022-12-07T08:36:19;100642.72;;;-4.91;55.87
54666;BME280;40566;50.006;36.180;2022-12-07T08:41:20;100638.34;;;-3.86;53.73
54666;BME280;40566;50.006;36.180;2022-12-07T08:46:36;100628.13;;;-3.50;53.17
54666;BME280;40566;50.006;36.180;2022-12-07T08:51:39;100625.56;;;-3.69;54.12
54666;BME280;40566;50.006;36.180;2022-12-07T08:56:40;100633.31;;;-3.66;54.41
54666;BME280;40566;50.006;36.180;2022-12-07T09:01:41;100623.69;;;-3.75;54.71
54666;BME280;40566;50.006;36.180;2022-12-07T09:06:42;100622.41;;;-3.85;54.94
54666;BME280;40566;50.006;36.180;2022-12-07T09:11:43;100612.41;;;-3.82;55.32
54666;BME280;40566;50.006;36.180;2022-12-07T09:16:45;100605.84;;;-3.78;55.51
54666;BME280;40566;50.006;36.180;2022-12-07T09:21:46;100599.16;;;-3.95;55.92
54666;BME280;40566;50.006;36.180;2022-12-07T09:26:46;100580.78;;;-3.93;55.98
54666;BME280;40566;50.006;36.180;2022-12-07T09:31:47;100563.78;;;-3.76;55.72
54666;BME280;40566;50.006;36.180;2022-12-07T09:36:47;100564.38;;;-3.82;55.89
54666;BME280;40566;50.006;36.180;2022-12-07T09:41:48;100546.03;;;-3.97;56.24
54666;BME280;40566;50.006;36.180;2022-12-07T09:46:49;100535.13;;;-4.15;56.67
54666;BME280;40566;50.006;36.180;2022-12-07T09:52:25;100513.72;;;-4.24;56.91
54666;BME280;40566;50.006;36.180;2022-12-07T09:57:32;100514.25;;;-4.11;56.68
54666;BME280;40566;50.006;36.180;2022-12-07T10:02:59;100517.44;;;-3.96;56.40
54666;BME280;40566;50.006;36.180;2022-12-07T10:08:00;100507.41;;;-3.75;56.32
54666;BME280;40566;50.006;36.180;2022-12-07T10:13:06;100509.75;;;-3.59;55.98
54666;BME280;40566;50.006;36.180;2022-12-07T10:18:38;100508.84;;;-3.61;55.62
54666;BME280;40566;50.006;36.180;2022-12-07T10:23:39;100494.94;;;-3.70;56.42
54666;BME280;40566;50.006;36.180;2022-12-07T10:28:41;100483.56;;;-3.61;56.15
54666;BME280;40566;50.006;36.180;2022-12-07T10:33:59;100483.75;;;-3.35;55.69
54666;BME280;40566;50.006;36.180;2022-12-07T10:39:15;100482.16;;;-3.10;55.30
54666;BME280;40566;50.006;36.180;2022-12-07T10:44:22;100474.81;;;-3.04;55.41
54666;BME280;40566;50.006;36.180;2022-12-07T11:06:10;100476.16;;;-3.14;56.16
54666;BME280;40566;50.006;36.180;2022-12-07T11:16:46;100460.53;;;-3.25;56.50
54666;BME280;40566;50.006;36.180;2022-12-07T11:37:30;100444.56;;;-3.24;56.70
54666;BME280;40566;50.006;36.180;2022-12-07T11:42:38;100441.75;;;-3.31;57.08
54666;BME280;40566;50.006;36.180;2022-12-07T12:03:34;100423.84;;;-3.36;56.97
54666;BME280;40566;50.006;36.180;2022-12-07T12:08:41;100431.56;;;-3.33;57.19
54666;BME280;40566;50.006;36.180;2022-12-07T12:24:33;100438.84;;;-3.18;57.02
54666;BME280;40566;50.006;36.180;2022-12-07T12:29:40;100436.28;;;-3.20;56.77
54666;BME280;40566;50.006;36.180;2022-12-07T12:45:22;100446.84;;;-3.30;57.23
54666;BME280;40566;50.006;36.180;2022-12-07T12:50:35;100450.66;;;-3.19;57.14
54666;BME280;40566;50.006;36.180;2022-12-07T13:00:44;100447.88;;;-3.25;57.13
54666;BME280;40566;50.006;36.180;2022-12-07T13:05:45;100452.03;;;-3.27;57.43
54666;BME280;40566;50.006;36.180;2022-12-07T13:10:46;100454.56;;;-3.27;57.31
54666;BME280;40566;50.006;36.180;2022-12-07T13:36:44;100451.09;;;-3.50;57.54
54666;BME280;40566;50.006;36.180;2022-12-07T13:41:50;100452.72;;;-3.52;57.61
54666;BME280;40566;50.006;36.180;2022-12-07T13:47:15;100453.97;;;-3.63;57.70
54666;BME280;40566;50.006;36.180;2022-12-07T13:57:25;100450.00;;;-3.56;57.63
54666;BME280;40566;50.006;36.180;2022-12-07T14:02:32;100434.91;;;-3.55;57.48
54666;BME280;40566;50.006;36.180;2022-12-07T14:07:33;100433.09;;;-3.58;57.51
54666;BME280;40566;50.006;36.180;2022-12-07T14:12:36;100419.50;;;-3.61;57.69
54666;BME280;40566;50.006;36.180;2022-12-07T14:17:53;100422.97;;;-3.58;57.66
54666;BME280;40566;50.006;36.180;2022-12-07T14:22:55;100419.28;;;-3.66;57.95
54666;BME280;40566;50.006;36.180;2022-12-07T14:27:58;100423.56;;;-3.65;57.71
54666;BME280;40566;50.006;36.180;2022-12-07T14:33:03;100419.53;;;-3.60;57.47
54666;BME280;40566;50.006;36.180;2022-12-07T14:38:04;100437.19;;;-3.61;57.42
54666;BME280;40566;50.006;36.180;2022-12-07T14:43:09;100430.69;;;-3.54;57.41
54666;BME280;40566;50.006;36.180;2022-12-07T14:48:12;100427.25;;;-3.56;57.38
54666;BME280;40566;50.006;36.180;2022-12-07T14:53:15;100430.56;;;-3.58;57.43
54666;BME280;40566;50.006;36.180;2022-12-07T14:58:17;100421.34;;;-3.57;57.42
54666;BME280;40566;50.006;36.180;2022-12-07T15:03:18;100424.78;;;-3.55;57.51
54666;BME280;40566;50.006;36.180;2022-12-07T15:08:18;100421.50;;;-3.52;57.31
54666;BME280;40566;50.006;36.180;2022-12-07T15:13:19;100412.75;;;-3.61;57.61
54666;BME280;40566;50.006;36.180;2022-12-07T15:18:39;100407.81;;;-3.58;57.45
54666;BME280;40566;50.006;36.180;2022-12-07T15:23:39;100406.09;;;-3.59;57.38
54666;BME280;40566;50.006;36.180;2022-12-07T15:28:40;100404.13;;;-3.66;57.30
54666;BME280;40566;50.006;36.180;2022-12-07T15:33:42;100410.91;;;-3.65;57.36
54666;BME280;40566;50.006;36.180;2022-12-07T15:38:42;100405.31;;;-3.79;57.60
54666;BME280;40566;50.006;36.180;2022-12-07T15:43:43;100398.56;;;-3.78;57.80
54666;BME280;40566;50.006;36.180;2022-12-07T15:49:03;100402.03;;;-3.76;57.60
54666;BME280;40566;50.006;36.180;2022-12-07T15:54:05;100396.50;;;-3.67;57.51
54666;BME280;40566;50.006;36.180;2022-12-07T15:59:05;100398.28;;;-3.65;57.33
54666;BME280;40566;50.006;36.180;2022-12-07T16:04:06;100410.00;;;-3.67;57.29
54666;BME280;40566;50.006;36.180;2022-12-07T16:09:07;100392.91;;;-3.72;57.38
54666;BME280;40566;50.006;36.180;2022-12-07T16:14:07;100402.94;;;-3.74;57.45
54666;BME280;40566;50.006;36.180;2022-12-07T16:19:08;100404.47;;;-3.78;57.64
54666;BME280;40566;50.006;36.180;2022-12-07T16:24:09;100407.16;;;-3.74;57.45
54666;BME280;40566;50.006;36.180;2022-12-07T16:29:11;100406.09;;;-3.80;57.30
54666;BME280;40566;50.006;36.180;2022-12-07T16:34:12;100404.16;;;-3.85;57.47
54666;BME280;40566;50.006;36.180;2022-12-07T16:39:13;100405.00;;;-3.86;57.43
54666;BME280;40566;50.006;36.180;2022-12-07T16:44:13;100398.25;;;-3.86;57.26
54666;BME280;40566;50.006;36.180;2022-12-07T16:49:15;100406.34;;;-3.94;57.55
54666;BME280;40566;50.006;36.180;2022-12-07T16:54:16;100404.00;;;-3.90;57.49
54666;BME280;40566;50.006;36.180;2022-12-07T16:59:16;100406.66;;;-3.87;57.41
54666;BME280;40566;50.006;36.180;2022-12-07T17:04:17;100410.16;;;-3.83;57.32
54666;BME280;40566;50.006;36.180;2022-12-07T17:09:18;100399.13;;;-3.85;57.12
54666;BME280;40566;50.006;36.180;2022-12-07T17:14:18;100397.28;;;-3.89;57.56
54666;BME280;40566;50.006;36.180;2022-12-07T17:19:37;100391.28;;;-3.91;57.39
54666;BME280;40566;50.006;36.180;2022-12-07T17:24:38;100377.88;;;-3.90;57.38
54666;BME280;40566;50.006;36.180;2022-12-07T17:29:39;100366.84;;;-3.92;57.43
54666;BME280;40566;50.006;36.180;2022-12-07T17:34:39;100352.34;;;-3.96;57.52
54666;BME280;40566;50.006;36.180;2022-12-07T17:39:40;100354.75;;;-4.00;57.51
54666;BME280;40566;50.006;36.180;2022-12-07T17:44:41;100365.97;;;-3.93;57.53
54666;BME280;40566;50.006;36.180;2022-12-07T17:49:43;100363.31;;;-3.96;57.65
54666;BME280;40566;50.006;36.180;2022-12-07T17:54:46;100365.91;;;-3.94;57.51
54666;BME280;40566;50.006;36.180;2022-12-07T17:59:46;100357.44;;;-3.95;57.65
54666;BME280;40566;50.006;36.180;2022-12-07T18:04:47;100352.59;;;-3.90;57.48
54666;BME280;40566;50.006;36.180;2022-12-07T18:09:48;100348.41;;;-3.90;57.57
54666;BME280;40566;50.006;36.180;2022-12-07T18:14:48;100344.19;;;-3.89;57.42
54666;BME280;40566;50.006;36.180;2022-12-07T18:19:51;100344.78;;;-3.96;57.67
54666;BME280;40566;50.006;36.180;2022-12-07T18:24:51;100350.81;;;-3.93;57.78
54666;BME280;40566;50.006;36.180;2022-12-07T18:29:52;100338.28;;;-3.90;57.68
54666;BME280;40566;50.006;36.180;2022-12-07T18:34:53;100338.13;;;-3.94;57.68
54666;BME280;40566;50.006;36.180;2022-12-07T18:39:55;100339.28;;;-3.86;57.67
54666;BME280;40566;50.006;36.180;2022-12-07T18:44:56;100345.38;;;-3.81;57.63
54666;BME280;40566;50.006;36.180;2022-12-07T18:49:57;100358.81;;;-3.82;57.67
54666;BME280;40566;50.006;36.180;2022-12-07T18:54:57;100359.50;;;-3.86;57.85
54666;BME280;40566;50.006;36.180;2022-12-07T19:00:03;100352.22;;;-3.79;57.64
54666;BME280;40566;50.006;36.180;2022-12-07T19:05:04;100349.69;;;-3.79;57.97
54666;BME280;40566;50.006;36.180;2022-12-07T19:10:06;100357.03;;;-3.85;58.07
54666;BME280;40566;50.006;36.180;2022-12-07T19:15:08;100347.78;;;-3.84;58.14
54666;BME280;40566;50.006;36.180;2022-12-07T19:20:12;100321.75;;;-3.82;58.10
54666;BME280;40566;50.006;36.180;2022-12-07T19:25:13;100315.72;;;-3.85;58.08
54666;BME280;40566;50.006;36.180;2022-12-07T19:30:13;100322.13;;;-3.93;58.31
54666;BME280;40566;50.006;36.180;2022-12-07T19:35:15;100330.66;;;-3.91;58.29
54666;BME280;40566;50.006;36.180;2022-12-07T19:40:16;100339.22;;;-3.88;58.35
54666;BME280;40566;50.006;36.180;2022-12-07T19:45:17;100344.56;;;-3.80;58.30
54666;BME280;40566;50.006;36.180;2022-12-07T19:50:17;100346.78;;;-3.67;58.16
54666;BME280;40566;50.006;36.180;2022-12-07T19:55:18;100344.03;;;-3.73;58.20
54666;BME280;40566;50.006;36.180;2022-12-07T20:00:19;100337.00;;;-3.80;58.56
54666;BME280;40566;50.006;36.180;2022-12-07T20:05:19;100341.38;;;-3.76;58.51
54666;BME280;40566;50.006;36.180;2022-12-07T20:10:21;100348.88;;;-3.78;58.45
54666;BME280;40566;50.006;36.180;2022-12-07T20:15:21;100346.50;;;-3.74;58.76
54666;BME280;40566;50.006;36.180;2022-12-07T20:20:22;100348.03;;;-3.78;58.82
54666;BME280;40566;50.006;36.180;2022-12-07T20:25:23;100337.06;;;-3.79;58.81
54666;BME280;40566;50.006;36.180;2022-12-07T20:30:23;100326.09;;;-3.79;58.80
54666;BME280;40566;50.006;36.180;2022-12-07T20:35:24;100320.16;;;-3.80;59.06
54666;BME280;40566;50.006;36.180;2022-12-07T20:40:25;100309.31;;;-3.77;59.12
54666;BME280;40566;50.006;36.180;2022-12-07T20:45:27;100314.56;;;-3.72;58.99
54666;BME280;40566;50.006;36.180;2022-12-07T20:50:27;100328.91;;;-3.71;58.85
54666;BME280;40566;50.006;36.180;2022-12-07T20:55:28;100319.66;;;-3.71;59.16
54666;BME280;40566;50.006;36.180;2022-12-07T21:00:29;100315.31;;;-3.75;59.27
54666;BME280;40566;50.006;36.180;2022-12-07T21:05:29;100311.03;;;-3.76;59.30
54666;BME280;40566;50.006;36.180;2022-12-07T21:10:30;100314.47;;;-3.74;59.38
54666;BME280;40566;50.006;36.180;2022-12-07T21:15:30;100311.59;;;-3.83;59.54
54666;BME280;40566;50.006;36.180;2022-12-07T21:20:31;100302.53;;;-3.78;59.53
54666;BME280;40566;50.006;36.180;2022-12-07T21:25:32;100289.91;;;-3.78;59.60
54666;BME280;40566;50.006;36.180;2022-12-07T21:30:32;100284.78;;;-3.80;59.46
54666;BME280;40566;50.006;36.180;2022-12-07T21:35:33;100291.56;;;-3.79;59.47
54666;BME280;40566;50.006;36.180;2022-12-07T21:40:34;100294.25;;;-3.74;59.66
54666;BME280;40566;50.006;36.180;2022-12-07T21:45:34;100290.94;;;-3.73;59.53
54666;BME280;40566;50.006;36.180;2022-12-07T21:50:35;100294.25;;;-3.74;59.75
54666;BME280;40566;50.006;36.180;2022-12-07T21:55:39;100284.16;;;-3.74;59.79
54666;BME280;40566;50.006;36.180;2022-12-07T22:00:40;100280.59;;;-3.79;59.76
54666;BME280;40566;50.006;36.180;2022-12-07T22:05:41;100272.06;;;-3.81;59.96
54666;BME280;40566;50.006;36.180;2022-12-07T22:10:41;100274.91;;;-3.73;59.91
54666;BME280;40566;50.006;36.180;2022-12-07T22:15:42;100271.03;;;-3.65;59.91
54666;BME280;40566;50.006;36.180;2022-12-07T22:20:43;100268.53;;;-3.64;59.82
54666;BME280;40566;50.006;36.180;2022-12-07T22:25:43;100231.44;;;-3.65;59.64
54666;BME280;40566;50.006;36.180;2022-12-07T22:30:44;100245.63;;;-3.68;59.94
54666;BME280;40566;50.006;36.180;2022-12-07T22:35:51;100262.69;;;-3.63;59.87
54666;BME280;40566;50.006;36.180;2022-12-07T22:40:53;100260.94;;;-3.64;60.03
54666;BME280;40566;50.006;36.180;2022-12-07T22:45:55;100278.00;;;-3.58;59.86
54666;BME280;40566;50.006;36.180;2022-12-07T22:50:56;100278.31;;;-3.50;59.76
54666;BME280;40566;50.006;36.180;2022-12-07T22:55:56;100283.50;;;-3.47;59.85
54666;BME280;40566;50.006;36.180;2022-12-07T23:00:57;100291.25;;;-3.43;59.85
54666;BME280;40566;50.006;36.180;2022-12-07T23:05:58;100270.16;;;-3.43;59.88
54666;BME280;40566;50.006;36.180;2022-12-07T23:10:58;100279.22;;;-3.48;59.83
54666;BME280;40566;50.006;36.180;2022-12-07T23:16:06;100268.31;;;-3.47;60.02
54666;BME280;40566;50.006;36.180;2022-12-07T23:21:07;100268.41;;;-3.44;59.75
54666;BME280;40566;50.006;36.180;2022-12-07T23:26:10;100249.94;;;-3.42;59.99
54666;BME280;40566;50.006;36.180;2022-12-07T23:31:14;100260.25;;;-3.37;59.89
54666;BME280;40566;50.006;36.180;2022-12-07T23:36:18;100266.06;;;-3.40;59.71
54666;BME280;40566;50.006;36.180;2022-12-07T23:41:21;100261.66;;;-3.45;60.20
54666;BME280;40566;50.006;36.180;2022-12-07T23:46:25;100260.25;;;-3.37;59.82
54666;BME280;40566;50.006;36.180;2022-12-07T23:51:25;100259.44;;;-3.36;59.79
54666;BME280;40566;50.006;36.180;2022-12-07T23:56:28;100258.44;;;-3.41;59.92
